sensor_id;sensor_type;location;lat;lon;timestamp;P1;durP1;ratioP1;P2;durP2;ratioP2
18013;SDS011;9132;47.946;10.394;2023-09-07T00:00:26;5.37;;;3.87;;
18013;SDS011;9132;47.946;10.394;2023-09-07T00:02:53;4.40;;;4.00;;
18013;SDS011;9132;47.946;10.394;2023-09-07T00:05:19;4.77;;;4.03;;
18013;SDS011;9132;47.946;10.394;2023-09-07T00:07:45;5.00;;;4.27;;
18013;SDS011;9132;47.946;10.394;2023-09-07T00:10:13;4.97;;;3.90;;
18013;SDS011;9132;47.946;10.394;2023-09-07T00:12:40;4.30;;;3.90;;
18013;SDS011;9132;47.946;10.394;2023-09-07T00:15:06;4.50;;;4.10;;
18013;SDS011;9132;47.946;10.394;2023-09-07T00:17:33;4.50;;;4.10;;
18013;SDS011;9132;47.946;10.394;2023-09-07T00:20:00;5.67;;;3.87;;
18013;SDS011;9132;47.946;10.394;2023-09-07T00:22:29;4.60;;;4.20;;
18013;SDS011;9132;47.946;10.394;2023-09-07T00:24:56;4.67;;;4.10;;
18013;SDS011;9132;47.946;10.394;2023-09-07T00:27:23;5.30;;;4.13;;
18013;SDS011;9132;47.946;10.394;2023-09-07T00:29:50;5.23;;;4.33;;
18013;SDS011;9132;47.946;10.394;2023-09-07T00:32:16;4.60;;;4.10;;
18013;SDS011;9132;47.946;10.394;2023-09-07T00:34:42;4.60;;;4.13;;
18013;SDS011;9132;47.946;10.394;2023-09-07T00:37:09;4.87;;;3.90;;
18013;SDS011;9132;47.946;10.394;2023-09-07T00:39:35;4.83;;;4.40;;
18013;SDS011;9132;47.946;10.394;2023-09-07T00:42:01;5.37;;;4.87;;
18013;SDS011;9132;47.946;10.394;2023-09-07T00:44:29;5.97;;;5.47;;
18013;SDS011;9132;47.946;10.394;2023-09-07T00:46:56;5.57;;;5.07;;
18013;SDS011;9132;47.946;10.394;2023-09-07T00:49:22;6.37;;;4.50;;
18013;SDS011;9132;47.946;10.394;2023-09-07T00:51:48;5.60;;;5.00;;
18013;SDS011;9132;47.946;10.394;2023-09-07T00:54:15;5.27;;;4.70;;
18013;SDS011;9132;47.946;10.394;2023-09-07T00:56:41;6.20;;;4.97;;
18013;SDS011;9132;47.946;10.394;2023-09-07T00:59:07;5.30;;;4.80;;
18013;SDS011;9132;47.946;10.394;2023-09-07T01:01:35;5.90;;;4.47;;
18013;SDS011;9132;47.946;10.394;2023-09-07T01:04:02;7.23;;;4.67;;
18013;SDS011;9132;47.946;10.394;2023-09-07T01:06:29;5.13;;;4.63;;
18013;SDS011;9132;47.946;10.394;2023-09-07T01:08:57;5.40;;;4.90;;
18013;SDS011;9132;47.946;10.394;2023-09-07T01:11:35;5.73;;;4.63;;
18013;SDS011;9132;47.946;10.394;2023-09-07T01:14:01;5.10;;;4.60;;
18013;SDS011;9132;47.946;10.394;2023-09-07T01:16:29;4.80;;;4.40;;
18013;SDS011;9132;47.946;10.394;2023-09-07T01:18:56;5.17;;;4.77;;
18013;SDS011;9132;47.946;10.394;2023-09-07T01:21:23;5.73;;;4.87;;
18013;SDS011;9132;47.946;10.394;2023-09-07T01:23:51;4.83;;;4.13;;
18013;SDS011;9132;47.946;10.394;2023-09-07T01:26:18;5.30;;;4.80;;
18013;SDS011;9132;47.946;10.394;2023-09-07T01:28:44;5.20;;;4.77;;
18013;SDS011;9132;47.946;10.394;2023-09-07T01:31:10;6.33;;;4.93;;
18013;SDS011;9132;47.946;10.394;2023-09-07T01:33:37;5.33;;;4.83;;
18013;SDS011;9132;47.946;10.394;2023-09-07T01:36:02;5.40;;;4.40;;
18013;SDS011;9132;47.946;10.394;2023-09-07T01:38:29;7.60;;;4.80;;
18013;SDS011;9132;47.946;10.394;2023-09-07T01:40:57;5.20;;;4.30;;
18013;SDS011;9132;47.946;10.394;2023-09-07T01:43:23;6.13;;;4.57;;
18013;SDS011;9132;47.946;10.394;2023-09-07T01:45:49;7.83;;;4.73;;
18013;SDS011;9132;47.946;10.394;2023-09-07T01:48:16;5.20;;;4.70;;
18013;SDS011;9132;47.946;10.394;2023-09-07T01:50:42;5.43;;;4.90;;
18013;SDS011;9132;47.946;10.394;2023-09-07T01:53:08;5.37;;;4.87;;
18013;SDS011;9132;47.946;10.394;2023-09-07T01:55:35;5.77;;;4.73;;
18013;SDS011;9132;47.946;10.394;2023-09-07T01:58:02;5.70;;;4.90;;
18013;SDS011;9132;47.946;10.394;2023-09-07T02:00:29;6.30;;;4.83;;
18013;SDS011;9132;47.946;10.394;2023-09-07T02:02:55;5.63;;;5.13;;
18013;SDS011;9132;47.946;10.394;2023-09-07T02:05:21;5.50;;;5.00;;
18013;SDS011;9132;47.946;10.394;2023-09-07T02:07:48;6.33;;;5.03;;
18013;SDS011;9132;47.946;10.394;2023-09-07T02:10:14;7.07;;;4.77;;
18013;SDS011;9132;47.946;10.394;2023-09-07T02:12:41;5.50;;;5.00;;
18013;SDS011;9132;47.946;10.394;2023-09-07T02:15:09;5.53;;;4.77;;
18013;SDS011;9132;47.946;10.394;2023-09-07T02:17:35;5.40;;;4.90;;
18013;SDS011;9132;47.946;10.394;2023-09-07T02:20:02;6.03;;;5.27;;
18013;SDS011;9132;47.946;10.394;2023-09-07T02:22:35;5.33;;;4.83;;
18013;SDS011;9132;47.946;10.394;2023-09-07T02:25:02;5.00;;;4.60;;
18013;SDS011;9132;47.946;10.394;2023-09-07T02:27:30;5.53;;;4.93;;
18013;SDS011;9132;47.946;10.394;2023-09-07T02:29:56;5.50;;;4.90;;
18013;SDS011;9132;47.946;10.394;2023-09-07T02:32:24;5.20;;;4.57;;
18013;SDS011;9132;47.946;10.394;2023-09-07T02:34:50;4.93;;;4.53;;
18013;SDS011;9132;47.946;10.394;2023-09-07T02:37:17;4.47;;;4.07;;
18013;SDS011;9132;47.946;10.394;2023-09-07T02:39:43;4.97;;;4.37;;
18013;SDS011;9132;47.946;10.394;2023-09-07T02:42:09;5.23;;;4.30;;
18013;SDS011;9132;47.946;10.394;2023-09-07T02:44:36;5.20;;;4.50;;
18013;SDS011;9132;47.946;10.394;2023-09-07T02:47:03;5.20;;;4.43;;
18013;SDS011;9132;47.946;10.394;2023-09-07T02:49:31;5.50;;;4.43;;
18013;SDS011;9132;47.946;10.394;2023-09-07T02:51:57;5.00;;;4.50;;
18013;SDS011;9132;47.946;10.394;2023-09-07T02:54:23;5.70;;;4.50;;
18013;SDS011;9132;47.946;10.394;2023-09-07T02:56:50;4.87;;;4.37;;
18013;SDS011;9132;47.946;10.394;2023-09-07T02:59:16;5.30;;;4.80;;
18013;SDS011;9132;47.946;10.394;2023-09-07T03:01:42;4.63;;;4.23;;
18013;SDS011;9132;47.946;10.394;2023-09-07T03:04:09;4.97;;;4.53;;
18013;SDS011;9132;47.946;10.394;2023-09-07T03:06:36;5.10;;;4.70;;
18013;SDS011;9132;47.946;10.394;2023-09-07T03:09:03;6.03;;;5.10;;
18013;SDS011;9132;47.946;10.394;2023-09-07T03:11:34;5.30;;;4.80;;
18013;SDS011;9132;47.946;10.394;2023-09-07T03:14:00;4.83;;;4.40;;
18013;SDS011;9132;47.946;10.394;2023-09-07T03:16:27;5.37;;;4.87;;
18013;SDS011;9132;47.946;10.394;2023-09-07T03:18:55;6.83;;;4.47;;
18013;SDS011;9132;47.946;10.394;2023-09-07T03:21:21;6.80;;;5.47;;
18013;SDS011;9132;47.946;10.394;2023-09-07T03:23:51;7.63;;;4.80;;
18013;SDS011;9132;47.946;10.394;2023-09-07T03:26:18;5.47;;;4.80;;
18013;SDS011;9132;47.946;10.394;2023-09-07T03:28:44;6.10;;;5.37;;
18013;SDS011;9132;47.946;10.394;2023-09-07T03:31:11;6.47;;;5.07;;
18013;SDS011;9132;47.946;10.394;2023-09-07T03:33:37;5.67;;;5.17;;
18013;SDS011;9132;47.946;10.394;2023-09-07T03:36:03;5.13;;;4.73;;
18013;SDS011;9132;47.946;10.394;2023-09-07T03:38:30;5.70;;;4.87;;
18013;SDS011;9132;47.946;10.394;2023-09-07T03:40:57;6.13;;;4.80;;
18013;SDS011;9132;47.946;10.394;2023-09-07T03:43:24;5.07;;;4.53;;
18013;SDS011;9132;47.946;10.394;2023-09-07T03:45:50;5.20;;;4.70;;
18013;SDS011;9132;47.946;10.394;2023-09-07T03:48:16;6.47;;;4.93;;
18013;SDS011;9132;47.946;10.394;2023-09-07T03:50:43;4.97;;;4.57;;
18013;SDS011;9132;47.946;10.394;2023-09-07T03:53:09;5.33;;;4.87;;
18013;SDS011;9132;47.946;10.394;2023-09-07T03:55:39;6.03;;;5.50;;
18013;SDS011;9132;47.946;10.394;2023-09-07T03:58:07;6.03;;;5.33;;
18013;SDS011;9132;47.946;10.394;2023-09-07T04:00:34;5.67;;;4.73;;
18013;SDS011;9132;47.946;10.394;2023-09-07T04:03:01;5.33;;;4.83;;
18013;SDS011;9132;47.946;10.394;2023-09-07T04:05:28;6.57;;;4.80;;
18013;SDS011;9132;47.946;10.394;2023-09-07T04:07:54;6.80;;;4.90;;
18013;SDS011;9132;47.946;10.394;2023-09-07T04:10:20;5.93;;;5.33;;
18013;SDS011;9132;47.946;10.394;2023-09-07T04:12:46;5.30;;;4.80;;
18013;SDS011;9132;47.946;10.394;2023-09-07T04:15:14;6.13;;;5.57;;
18013;SDS011;9132;47.946;10.394;2023-09-07T04:17:40;6.37;;;5.20;;
18013;SDS011;9132;47.946;10.394;2023-09-07T04:20:07;6.57;;;5.03;;
18013;SDS011;9132;47.946;10.394;2023-09-07T04:22:36;6.50;;;5.77;;
18013;SDS011;9132;47.946;10.394;2023-09-07T04:25:03;8.40;;;5.90;;
18013;SDS011;9132;47.946;10.394;2023-09-07T04:27:30;10.10;;;6.00;;
18013;SDS011;9132;47.946;10.394;2023-09-07T04:29:56;6.73;;;5.93;;
18013;SDS011;9132;47.946;10.394;2023-09-07T04:32:24;11.83;;;6.33;;
18013;SDS011;9132;47.946;10.394;2023-09-07T04:34:52;7.40;;;6.70;;
18013;SDS011;9132;47.946;10.394;2023-09-07T04:37:19;6.80;;;6.10;;
18013;SDS011;9132;47.946;10.394;2023-09-07T04:39:45;6.90;;;6.20;;
18013;SDS011;9132;47.946;10.394;2023-09-07T04:42:13;8.53;;;6.13;;
18013;SDS011;9132;47.946;10.394;2023-09-07T04:44:39;7.77;;;5.93;;
18013;SDS011;9132;47.946;10.394;2023-09-07T04:47:05;6.60;;;5.50;;
18013;SDS011;9132;47.946;10.394;2023-09-07T04:49:33;6.33;;;5.73;;
18013;SDS011;9132;47.946;10.394;2023-09-07T04:51:59;7.07;;;5.53;;
18013;SDS011;9132;47.946;10.394;2023-09-07T04:54:26;6.93;;;5.27;;
18013;SDS011;9132;47.946;10.394;2023-09-07T04:56:52;5.93;;;5.40;;
18013;SDS011;9132;47.946;10.394;2023-09-07T04:59:18;6.27;;;5.50;;
18013;SDS011;9132;47.946;10.394;2023-09-07T05:01:45;8.53;;;6.10;;
18013;SDS011;9132;47.946;10.394;2023-09-07T05:04:11;6.63;;;5.97;;
18013;SDS011;9132;47.946;10.394;2023-09-07T05:06:39;6.50;;;5.90;;
18013;SDS011;9132;47.946;10.394;2023-09-07T05:09:06;7.63;;;6.10;;
18013;SDS011;9132;47.946;10.394;2023-09-07T05:11:33;6.70;;;6.10;;
18013;SDS011;9132;47.946;10.394;2023-09-07T05:13:59;7.17;;;6.33;;
18013;SDS011;9132;47.946;10.394;2023-09-07T05:16:26;8.40;;;6.50;;
18013;SDS011;9132;47.946;10.394;2023-09-07T05:18:52;7.70;;;7.00;;
18013;SDS011;9132;47.946;10.394;2023-09-07T05:21:18;7.17;;;6.50;;
18013;SDS011;9132;47.946;10.394;2023-09-07T05:23:46;7.20;;;6.40;;
18013;SDS011;9132;47.946;10.394;2023-09-07T05:26:12;7.63;;;6.50;;
18013;SDS011;9132;47.946;10.394;2023-09-07T05:28:39;7.20;;;6.50;;
18013;SDS011;9132;47.946;10.394;2023-09-07T05:31:06;6.77;;;6.07;;
18013;SDS011;9132;47.946;10.394;2023-09-07T05:33:32;7.70;;;7.00;;
18013;SDS011;9132;47.946;10.394;2023-09-07T05:35:59;7.60;;;6.77;;
18013;SDS011;9132;47.946;10.394;2023-09-07T05:38:26;7.63;;;6.93;;
18013;SDS011;9132;47.946;10.394;2023-09-07T05:40:54;7.47;;;6.50;;
18013;SDS011;9132;47.946;10.394;2023-09-07T05:43:20;7.33;;;6.63;;
18013;SDS011;9132;47.946;10.394;2023-09-07T05:45:47;7.93;;;7.23;;
18013;SDS011;9132;47.946;10.394;2023-09-07T05:48:13;7.30;;;6.23;;
18013;SDS011;9132;47.946;10.394;2023-09-07T05:50:41;8.63;;;6.70;;
18013;SDS011;9132;47.946;10.394;2023-09-07T05:53:07;7.17;;;6.50;;
18013;SDS011;9132;47.946;10.394;2023-09-07T05:55:34;7.33;;;6.60;;
18013;SDS011;9132;47.946;10.394;2023-09-07T05:58:03;7.20;;;6.57;;
18013;SDS011;9132;47.946;10.394;2023-09-07T06:00:30;7.27;;;6.57;;
18013;SDS011;9132;47.946;10.394;2023-09-07T06:02:56;8.30;;;6.70;;
18013;SDS011;9132;47.946;10.394;2023-09-07T06:05:22;7.83;;;7.03;;
18013;SDS011;9132;47.946;10.394;2023-09-07T06:07:49;7.77;;;6.90;;
18013;SDS011;9132;47.946;10.394;2023-09-07T06:10:15;7.40;;;6.70;;
18013;SDS011;9132;47.946;10.394;2023-09-07T06:12:42;7.70;;;7.00;;
18013;SDS011;9132;47.946;10.394;2023-09-07T06:15:10;9.10;;;8.17;;
18013;SDS011;9132;47.946;10.394;2023-09-07T06:17:36;7.87;;;7.10;;
18013;SDS011;9132;47.946;10.394;2023-09-07T06:20:03;8.07;;;7.27;;
18013;SDS011;9132;47.946;10.394;2023-09-07T06:22:30;7.83;;;7.03;;
18013;SDS011;9132;47.946;10.394;2023-09-07T06:24:57;8.40;;;7.50;;
18013;SDS011;9132;47.946;10.394;2023-09-07T06:27:23;9.70;;;7.17;;
18013;SDS011;9132;47.946;10.394;2023-09-07T06:29:49;8.10;;;7.40;;
18013;SDS011;9132;47.946;10.394;2023-09-07T06:32:17;9.37;;;7.97;;
18013;SDS011;9132;47.946;10.394;2023-09-07T06:34:44;9.30;;;7.87;;
18013;SDS011;9132;47.946;10.394;2023-09-07T06:37:10;10.45;;;8.00;;
18013;SDS011;9132;47.946;10.394;2023-09-07T06:39:37;10.60;;;8.18;;
18013;SDS011;9132;47.946;10.394;2023-09-07T06:42:03;8.15;;;7.43;;
18013;SDS011;9132;47.946;10.394;2023-09-07T06:44:30;8.38;;;7.38;;
18013;SDS011;9132;47.946;10.394;2023-09-07T06:46:56;7.60;;;6.70;;
18013;SDS011;9132;47.946;10.394;2023-09-07T06:49:24;7.85;;;7.15;;
18013;SDS011;9132;47.946;10.394;2023-09-07T06:51:50;10.27;;;7.25;;
18013;SDS011;9132;47.946;10.394;2023-09-07T06:54:16;6.95;;;6.25;;
18013;SDS011;9132;47.946;10.394;2023-09-07T06:56:43;8.27;;;7.47;;
18013;SDS011;9132;47.946;10.394;2023-09-07T06:59:10;9.20;;;7.53;;
18013;SDS011;9132;47.946;10.394;2023-09-07T07:01:36;8.05;;;7.25;;
18013;SDS011;9132;47.946;10.394;2023-09-07T07:04:02;7.68;;;6.85;;
18013;SDS011;9132;47.946;10.394;2023-09-07T07:06:30;8.07;;;6.85;;
18013;SDS011;9132;47.946;10.394;2023-09-07T07:08:56;7.70;;;6.88;;
18013;SDS011;9132;47.946;10.394;2023-09-07T07:11:23;7.78;;;7.07;;
18013;SDS011;9132;47.946;10.394;2023-09-07T07:13:49;7.32;;;6.72;;
18013;SDS011;9132;47.946;10.394;2023-09-07T07:16:16;8.10;;;7.30;;
18013;SDS011;9132;47.946;10.394;2023-09-07T07:18:42;7.50;;;6.78;;
18013;SDS011;9132;47.946;10.394;2023-09-07T07:21:09;7.38;;;6.65;;
18013;SDS011;9132;47.946;10.394;2023-09-07T07:23:36;7.50;;;6.45;;
18013;SDS011;9132;47.946;10.394;2023-09-07T07:26:03;6.88;;;6.28;;
18013;SDS011;9132;47.946;10.394;2023-09-07T07:28:29;9.85;;;6.57;;
18013;SDS011;9132;47.946;10.394;2023-09-07T07:30:55;6.32;;;5.72;;
18013;SDS011;9132;47.946;10.394;2023-09-07T07:33:22;7.15;;;6.13;;
18013;SDS011;9132;47.946;10.394;2023-09-07T07:35:48;7.10;;;6.40;;
18013;SDS011;9132;47.946;10.394;2023-09-07T07:38:14;7.45;;;6.63;;
18013;SDS011;9132;47.946;10.394;2023-09-07T07:40:42;7.85;;;7.15;;
18013;SDS011;9132;47.946;10.394;2023-09-07T07:43:10;7.70;;;7.00;;
18013;SDS011;9132;47.946;10.394;2023-09-07T07:45:38;8.90;;;8.00;;
18013;SDS011;9132;47.946;10.394;2023-09-07T07:48:04;9.70;;;8.57;;
18013;SDS011;9132;47.946;10.394;2023-09-07T07:50:35;9.60;;;8.70;;
18013;SDS011;9132;47.946;10.394;2023-09-07T07:53:02;9.48;;;8.57;;
18013;SDS011;9132;47.946;10.394;2023-09-07T07:55:28;8.85;;;8.05;;
18013;SDS011;9132;47.946;10.394;2023-09-07T07:57:56;8.60;;;7.78;;
18013;SDS011;9132;47.946;10.394;2023-09-07T08:00:22;9.55;;;8.65;;
18013;SDS011;9132;47.946;10.394;2023-09-07T08:02:48;9.15;;;8.43;;
18013;SDS011;9132;47.946;10.394;2023-09-07T08:05:15;9.30;;;8.45;;
18013;SDS011;9132;47.946;10.394;2023-09-07T08:07:42;9.73;;;8.80;;
18013;SDS011;9132;47.946;10.394;2023-09-07T08:10:08;8.65;;;7.95;;
18013;SDS011;9132;47.946;10.394;2023-09-07T08:12:35;9.10;;;8.20;;
18013;SDS011;9132;47.946;10.394;2023-09-07T08:15:03;9.70;;;8.48;;
18013;SDS011;9132;47.946;10.394;2023-09-07T08:17:29;8.63;;;7.93;;
18013;SDS011;9132;47.946;10.394;2023-09-07T08:19:56;8.75;;;7.95;;
18013;SDS011;9132;47.946;10.394;2023-09-07T08:22:22;8.75;;;7.88;;
18013;SDS011;9132;47.946;10.394;2023-09-07T08:24:48;8.77;;;7.97;;
18013;SDS011;9132;47.946;10.394;2023-09-07T08:27:16;10.00;;;8.82;;
18013;SDS011;9132;47.946;10.394;2023-09-07T08:29:43;10.70;;;8.43;;
18013;SDS011;9132;47.946;10.394;2023-09-07T08:32:14;9.02;;;8.23;;
18013;SDS011;9132;47.946;10.394;2023-09-07T08:34:41;9.15;;;7.57;;
18013;SDS011;9132;47.946;10.394;2023-09-07T08:37:07;8.13;;;7.43;;
18013;SDS011;9132;47.946;10.394;2023-09-07T08:39:34;7.97;;;7.28;;
18013;SDS011;9132;47.946;10.394;2023-09-07T08:42:01;8.43;;;7.63;;
18013;SDS011;9132;47.946;10.394;2023-09-07T08:44:30;8.25;;;7.43;;
18013;SDS011;9132;47.946;10.394;2023-09-07T08:46:58;9.57;;;8.75;;
18013;SDS011;9132;47.946;10.394;2023-09-07T08:49:27;8.57;;;7.55;;
18013;SDS011;9132;47.946;10.394;2023-09-07T08:51:53;8.77;;;7.90;;
18013;SDS011;9132;47.946;10.394;2023-09-07T08:54:22;8.52;;;7.82;;
18013;SDS011;9132;47.946;10.394;2023-09-07T08:56:49;9.07;;;8.18;;
18013;SDS011;9132;47.946;10.394;2023-09-07T08:59:15;9.57;;;8.60;;
18013;SDS011;9132;47.946;10.394;2023-09-07T09:01:42;9.60;;;8.80;;
18013;SDS011;9132;47.946;10.394;2023-09-07T09:04:08;10.07;;;9.07;;
18013;SDS011;9132;47.946;10.394;2023-09-07T09:06:36;9.07;;;8.20;;
18013;SDS011;9132;47.946;10.394;2023-09-07T09:09:02;8.15;;;7.43;;
18013;SDS011;9132;47.946;10.394;2023-09-07T09:11:30;8.63;;;7.82;;
18013;SDS011;9132;47.946;10.394;2023-09-07T09:13:56;8.75;;;7.97;;
18013;SDS011;9132;47.946;10.394;2023-09-07T09:16:22;7.30;;;6.70;;
18013;SDS011;9132;47.946;10.394;2023-09-07T09:18:49;8.93;;;8.02;;
18013;SDS011;9132;47.946;10.394;2023-09-07T09:21:17;8.63;;;7.82;;
18013;SDS011;9132;47.946;10.394;2023-09-07T09:23:46;8.55;;;7.70;;
18013;SDS011;9132;47.946;10.394;2023-09-07T09:26:13;8.60;;;7.80;;
18013;SDS011;9132;47.946;10.394;2023-09-07T09:28:39;7.88;;;7.18;;
18013;SDS011;9132;47.946;10.394;2023-09-07T09:31:05;9.27;;;8.45;;
18013;SDS011;9132;47.946;10.394;2023-09-07T09:33:37;7.53;;;6.88;;
18013;SDS011;9132;47.946;10.394;2023-09-07T09:36:03;10.40;;;9.52;;
18013;SDS011;9132;47.946;10.394;2023-09-07T09:38:30;8.13;;;7.43;;
18013;SDS011;9132;47.946;10.394;2023-09-07T09:40:59;8.43;;;7.72;;
18013;SDS011;9132;47.946;10.394;2023-09-07T09:43:25;8.50;;;7.70;;
18013;SDS011;9132;47.946;10.394;2023-09-07T09:45:52;8.32;;;7.63;;
18013;SDS011;9132;47.946;10.394;2023-09-07T09:48:19;10.65;;;8.80;;
18013;SDS011;9132;47.946;10.394;2023-09-07T09:50:45;8.50;;;7.80;;
18013;SDS011;9132;47.946;10.394;2023-09-07T09:53:13;8.23;;;7.25;;
18013;SDS011;9132;47.946;10.394;2023-09-07T09:55:43;10.95;;;8.82;;
18013;SDS011;9132;47.946;10.394;2023-09-07T09:58:11;8.45;;;7.65;;
18013;SDS011;9132;47.946;10.394;2023-09-07T10:00:38;9.93;;;9.13;;
18013;SDS011;9132;47.946;10.394;2023-09-07T10:03:05;9.07;;;8.20;;
18013;SDS011;9132;47.946;10.394;2023-09-07T10:05:33;8.15;;;7.35;;
18013;SDS011;9132;47.946;10.394;2023-09-07T10:08:01;9.18;;;8.38;;
18013;SDS011;9132;47.946;10.394;2023-09-07T10:10:32;7.65;;;6.95;;
18013;SDS011;9132;47.946;10.394;2023-09-07T10:12:59;9.07;;;8.25;;
18013;SDS011;9132;47.946;10.394;2023-09-07T10:15:27;8.27;;;7.57;;
18013;SDS011;9132;47.946;10.394;2023-09-07T10:18:08;8.45;;;7.63;;
18013;SDS011;9132;47.946;10.394;2023-09-07T10:20:35;8.23;;;7.55;;
18013;SDS011;9132;47.946;10.394;2023-09-07T10:23:12;7.65;;;6.93;;
18013;SDS011;9132;47.946;10.394;2023-09-07T10:25:38;8.57;;;7.50;;
18013;SDS011;9132;47.946;10.394;2023-09-07T10:28:05;8.95;;;8.15;;
18013;SDS011;9132;47.946;10.394;2023-09-07T10:30:33;10.57;;;7.88;;
18013;SDS011;9132;47.946;10.394;2023-09-07T10:33:00;7.30;;;6.70;;
18013;SDS011;9132;47.946;10.394;2023-09-07T10:35:27;10.57;;;8.02;;
18013;SDS011;9132;47.946;10.394;2023-09-07T10:37:55;7.32;;;6.70;;
18013;SDS011;9132;47.946;10.394;2023-09-07T10:40:21;7.95;;;7.15;;
18013;SDS011;9132;47.946;10.394;2023-09-07T10:42:48;7.63;;;6.82;;
18013;SDS011;9132;47.946;10.394;2023-09-07T10:45:15;7.90;;;7.20;;
18013;SDS011;9132;47.946;10.394;2023-09-07T10:47:43;8.27;;;7.55;;
18013;SDS011;9132;47.946;10.394;2023-09-07T10:50:11;8.65;;;7.82;;
18013;SDS011;9132;47.946;10.394;2023-09-07T10:52:38;8.95;;;8.20;;
18013;SDS011;9132;47.946;10.394;2023-09-07T10:55:05;8.13;;;7.25;;
18013;SDS011;9132;47.946;10.394;2023-09-07T10:57:31;8.93;;;8.13;;
18013;SDS011;9132;47.946;10.394;2023-09-07T10:59:57;8.88;;;7.97;;
18013;SDS011;9132;47.946;10.394;2023-09-07T11:02:24;8.52;;;7.75;;
18013;SDS011;9132;47.946;10.394;2023-09-07T11:04:51;9.50;;;8.27;;
18013;SDS011;9132;47.946;10.394;2023-09-07T11:07:18;8.93;;;7.93;;
18013;SDS011;9132;47.946;10.394;2023-09-07T11:09:45;7.18;;;6.30;;
18013;SDS011;9132;47.946;10.394;2023-09-07T11:12:12;8.40;;;6.35;;
18013;SDS011;9132;47.946;10.394;2023-09-07T11:14:38;8.90;;;7.93;;
18013;SDS011;9132;47.946;10.394;2023-09-07T11:17:05;7.97;;;7.20;;
18013;SDS011;9132;47.946;10.394;2023-09-07T11:19:31;7.57;;;6.93;;
18013;SDS011;9132;47.946;10.394;2023-09-07T11:21:59;8.27;;;7.43;;
18013;SDS011;9132;47.946;10.394;2023-09-07T11:24:26;8.88;;;7.57;;
18013;SDS011;9132;47.946;10.394;2023-09-07T11:26:52;8.35;;;7.53;;
18013;SDS011;9132;47.946;10.394;2023-09-07T11:29:18;8.50;;;7.60;;
18013;SDS011;9132;47.946;10.394;2023-09-07T11:31:45;8.43;;;6.95;;
18013;SDS011;9132;47.946;10.394;2023-09-07T11:34:12;8.57;;;6.97;;
18013;SDS011;9132;47.946;10.394;2023-09-07T11:36:39;8.18;;;7.25;;
18013;SDS011;9132;47.946;10.394;2023-09-07T11:39:07;8.25;;;6.53;;
18013;SDS011;9132;47.946;10.394;2023-09-07T11:41:37;8.68;;;7.05;;
18013;SDS011;9132;47.946;10.394;2023-09-07T11:44:03;8.00;;;7.20;;
18013;SDS011;9132;47.946;10.394;2023-09-07T11:46:30;7.75;;;7.03;;
18013;SDS011;9132;47.946;10.394;2023-09-07T11:48:56;8.75;;;7.45;;
18013;SDS011;9132;47.946;10.394;2023-09-07T11:51:23;8.65;;;7.63;;
18013;SDS011;9132;47.946;10.394;2023-09-07T11:53:49;7.50;;;6.80;;
18013;SDS011;9132;47.946;10.394;2023-09-07T11:56:17;7.68;;;6.90;;
18013;SDS011;9132;47.946;10.394;2023-09-07T11:58:45;6.68;;;6.07;;
18013;SDS011;9132;47.946;10.394;2023-09-07T12:01:14;6.75;;;6.25;;
18013;SDS011;9132;47.946;10.394;2023-09-07T12:03:43;8.98;;;7.57;;
18013;SDS011;9132;47.946;10.394;2023-09-07T12:06:23;10.98;;;8.10;;
18013;SDS011;9132;47.946;10.394;2023-09-07T12:08:59;6.78;;;6.18;;
18013;SDS011;9132;47.946;10.394;2023-09-07T12:11:27;9.68;;;7.43;;
18013;SDS011;9132;47.946;10.394;2023-09-07T12:13:53;7.18;;;6.47;;
18013;SDS011;9132;47.946;10.394;2023-09-07T12:16:22;7.75;;;7.05;;
18013;SDS011;9132;47.946;10.394;2023-09-07T12:18:48;6.90;;;6.30;;
18013;SDS011;9132;47.946;10.394;2023-09-07T12:21:16;7.38;;;6.68;;
18013;SDS011;9132;47.946;10.394;2023-09-07T12:23:48;8.18;;;6.00;;
18013;SDS011;9132;47.946;10.394;2023-09-07T12:26:15;7.30;;;6.57;;
18013;SDS011;9132;47.946;10.394;2023-09-07T12:28:48;7.20;;;6.50;;
18013;SDS011;9132;47.946;10.394;2023-09-07T12:31:17;7.47;;;6.70;;
18013;SDS011;9132;47.946;10.394;2023-09-07T12:33:44;6.32;;;5.72;;
18013;SDS011;9132;47.946;10.394;2023-09-07T12:36:10;7.85;;;6.72;;
18013;SDS011;9132;47.946;10.394;2023-09-07T12:38:37;7.70;;;6.90;;
18013;SDS011;9132;47.946;10.394;2023-09-07T12:41:03;6.60;;;5.90;;
18013;SDS011;9132;47.946;10.394;2023-09-07T12:43:29;5.70;;;5.25;;
18013;SDS011;9132;47.946;10.394;2023-09-07T12:45:58;8.80;;;5.68;;
18013;SDS011;9132;47.946;10.394;2023-09-07T12:48:26;5.88;;;5.20;;
18013;SDS011;9132;47.946;10.394;2023-09-07T12:50:53;6.03;;;5.43;;
18013;SDS011;9132;47.946;10.394;2023-09-07T12:53:19;6.00;;;5.40;;
18013;SDS011;9132;47.946;10.394;2023-09-07T12:55:49;6.47;;;5.30;;
18013;SDS011;9132;47.946;10.394;2023-09-07T12:58:18;7.13;;;5.13;;
18013;SDS011;9132;47.946;10.394;2023-09-07T13:00:47;6.70;;;5.60;;
18013;SDS011;9132;47.946;10.394;2023-09-07T13:03:18;5.72;;;5.30;;
18013;SDS011;9132;47.946;10.394;2023-09-07T13:05:45;6.88;;;5.65;;
18013;SDS011;9132;47.946;10.394;2023-09-07T13:08:14;6.97;;;6.28;;
18013;SDS011;9132;47.946;10.394;2023-09-07T13:10:49;6.53;;;5.93;;
18013;SDS011;9132;47.946;10.394;2023-09-07T13:13:16;6.43;;;5.93;;
18013;SDS011;9132;47.946;10.394;2023-09-07T13:15:43;5.85;;;5.30;;
18013;SDS011;9132;47.946;10.394;2023-09-07T13:18:16;7.18;;;5.40;;
18013;SDS011;9132;47.946;10.394;2023-09-07T13:20:44;9.85;;;5.53;;
18013;SDS011;9132;47.946;10.394;2023-09-07T13:23:18;6.80;;;6.03;;
18013;SDS011;9132;47.946;10.394;2023-09-07T13:25:44;6.25;;;5.65;;
18013;SDS011;9132;47.946;10.394;2023-09-07T13:28:10;5.57;;;5.18;;
18013;SDS011;9132;47.946;10.394;2023-09-07T13:30:37;5.72;;;5.13;;
18013;SDS011;9132;47.946;10.394;2023-09-07T13:33:05;5.05;;;4.57;;
18013;SDS011;9132;47.946;10.394;2023-09-07T13:35:37;7.10;;;4.93;;
18013;SDS011;9132;47.946;10.394;2023-09-07T13:38:08;5.80;;;5.25;;
18013;SDS011;9132;47.946;10.394;2023-09-07T13:40:38;5.55;;;5.05;;
18013;SDS011;9132;47.946;10.394;2023-09-07T13:43:04;7.80;;;4.85;;
18013;SDS011;9132;47.946;10.394;2023-09-07T13:45:31;5.88;;;4.68;;
18013;SDS011;9132;47.946;10.394;2023-09-07T13:47:57;5.93;;;5.40;;
18013;SDS011;9132;47.946;10.394;2023-09-07T13:50:24;4.88;;;4.47;;
18013;SDS011;9132;47.946;10.394;2023-09-07T13:52:50;5.28;;;4.78;;
18013;SDS011;9132;47.946;10.394;2023-09-07T13:55:18;5.95;;;5.40;;
18013;SDS011;9132;47.946;10.394;2023-09-07T13:57:44;5.13;;;4.70;;
18013;SDS011;9132;47.946;10.394;2023-09-07T14:00:13;5.43;;;4.82;;
18013;SDS011;9132;47.946;10.394;2023-09-07T14:02:39;5.82;;;5.38;;
18013;SDS011;9132;47.946;10.394;2023-09-07T14:05:06;6.95;;;5.30;;
18013;SDS011;9132;47.946;10.394;2023-09-07T14:07:33;6.22;;;5.63;;
18013;SDS011;9132;47.946;10.394;2023-09-07T14:09:59;5.53;;;5.00;;
18013;SDS011;9132;47.946;10.394;2023-09-07T14:12:28;7.75;;;5.22;;
18013;SDS011;9132;47.946;10.394;2023-09-07T14:14:54;5.32;;;4.78;;
18013;SDS011;9132;47.946;10.394;2023-09-07T14:17:21;5.18;;;4.72;;
18013;SDS011;9132;47.946;10.394;2023-09-07T14:19:47;6.93;;;5.72;;
18013;SDS011;9132;47.946;10.394;2023-09-07T14:22:14;6.63;;;5.20;;
18013;SDS011;9132;47.946;10.394;2023-09-07T14:24:40;7.32;;;4.50;;
18013;SDS011;9132;47.946;10.394;2023-09-07T14:27:06;6.03;;;5.43;;
18013;SDS011;9132;47.946;10.394;2023-09-07T14:29:35;7.10;;;5.50;;
18013;SDS011;9132;47.946;10.394;2023-09-07T14:32:02;8.38;;;5.88;;
18013;SDS011;9132;47.946;10.394;2023-09-07T14:34:29;7.38;;;5.28;;
18013;SDS011;9132;47.946;10.394;2023-09-07T14:36:57;8.00;;;5.70;;
18013;SDS011;9132;47.946;10.394;2023-09-07T14:39:32;6.05;;;5.45;;
18013;SDS011;9132;47.946;10.394;2023-09-07T14:42:04;6.68;;;5.40;;
18013;SDS011;9132;47.946;10.394;2023-09-07T14:44:37;7.20;;;6.05;;
18013;SDS011;9132;47.946;10.394;2023-09-07T14:47:04;5.57;;;5.07;;